Time;durP1;ratioP1;P1;durP2;ratioP2;P2;SDS_P1;SDS_P2;PMS_P1;PMS_P2;Temp;Humidity;BMP_temperature;BMP_pressure;BME280_temperature;BME280_humidity;BME280_pressure;Samples;Min_cycle;Max_cycle;Signal;HPM_P1;HPM_P2
2021/08/17 00:01:02;;;;;;;;;;;13.80;92.40;;;;;;5052123;28;19924;-63
2021/08/17 00:03:28;;;;;;;;;;;13.90;92.50;;;;;;5052129;28;19917;-64
2021/08/17 00:05:53;;;;;;;;;;;13.90;92.40;;;;;;5051626;28;20159;-65
2021/08/17 00:08:19;;;;;;;;;;;13.90;92.30;;;;;;5051708;28;19924;-64
2021/08/17 00:10:45;;;;;;;;;;;13.80;92.30;;;;;;5051472;28;20015;-64
2021/08/17 00:13:10;;;;;;;;;;;13.80;92.30;;;;;;5051875;28;20289;-64
2021/08/17 00:15:36;;;;;;;;;;;13.80;92.40;;;;;;5051971;28;19986;-64
2021/08/17 00:18:02;;;;;;;;;;;13.70;92.50;;;;;;5033264;28;19979;-65
2021/08/17 00:20:30;;;;;;;;;;;13.70;92.60;;;;;;5051042;28;21451;-65
2021/08/17 00:22:55;;;;;;;;;;;13.80;92.70;;;;;;5051375;28;19960;-63
2021/08/17 00:25:21;;;;;;;;;;;13.80;92.80;;;;;;5052052;28;19944;-67
2021/08/17 00:27:46;;;;;;;;;;;13.80;92.80;;;;;;5051087;28;19921;-63
2021/08/17 00:30:12;;;;;;;;;;;13.80;92.70;;;;;;5051252;28;20369;-64
2021/08/17 00:32:38;;;;;;;;;;;13.80;92.70;;;;;;5051580;28;19971;-64
2021/08/17 00:35:04;;;;;;;;;;;13.80;92.70;;;;;;5051492;28;20365;-63
2021/08/17 00:37:30;;;;;;;;;;;13.90;92.70;;;;;;5050781;28;19924;-65
2021/08/17 00:39:56;;;;;;;;;;;13.90;92.70;;;;;;5033895;28;19920;-65
2021/08/17 00:42:22;;;;;;;;;;;13.80;92.70;;;;;;5051492;28;20412;-63
2021/08/17 00:44:49;;;;;;;;;;;13.80;92.80;;;;;;5050956;28;19927;-63
2021/08/17 00:47:16;;;;;;;;;;;13.80;92.80;;;;;;5051128;28;19975;-65
2021/08/17 00:49:42;;;;;;;;;;;13.80;92.80;;;;;;5033091;28;20316;-63
2021/08/17 00:52:12;;;;;;;;;;;13.90;92.80;;;;;;5051354;28;19924;-63
2021/08/17 00:54:40;;;;;;;;;;;13.80;92.80;;;;;;5051407;28;20054;-62
2021/08/17 00:57:06;;;;;;;;;;;13.80;92.80;;;;;;5050427;28;19917;-64
2021/08/17 00:59:32;;;;;;;;;;;13.80;92.80;;;;;;5033476;28;19931;-63
2021/08/17 01:01:58;;;;;;;;;;;13.80;92.80;;;;;;5051873;28;19974;-65
2021/08/17 01:04:24;;;;;;;;;;;13.80;92.80;;;;;;5037514;28;19921;-64
2021/08/17 01:06:49;;;;;;;;;;;13.80;92.90;;;;;;5055159;28;19940;-64
2021/08/17 01:09:15;;;;;;;;;;;13.70;92.90;;;;;;5054936;28;19924;-64
2021/08/17 01:11:45;;;;;;;;;;;13.70;93.00;;;;;;5055185;28;19924;-62
2021/08/17 01:14:11;;;;;;;;;;;13.70;93.00;;;;;;5055471;28;20355;-65
2021/08/17 01:16:37;;;;;;;;;;;13.70;93.00;;;;;;5054851;28;19924;-64
2021/08/17 01:19:02;;;;;;;;;;;13.70;93.10;;;;;;5054919;28;20301;-63
2021/08/17 01:21:33;;;;;;;;;;;13.70;93.10;;;;;;5054695;28;19999;-63
2021/08/17 01:23:59;;;;;;;;;;;13.70;93.20;;;;;;5055244;28;19924;-63
2021/08/17 01:26:25;;;;;;;;;;;13.80;93.20;;;;;;5054880;28;19916;-63
2021/08/17 01:28:50;;;;;;;;;;;13.80;93.30;;;;;;5036268;28;19924;-64
2021/08/17 01:31:16;;;;;;;;;;;13.80;93.40;;;;;;5055497;28;19921;-62
2021/08/17 01:33:41;;;;;;;;;;;13.90;93.50;;;;;;5054870;28;19916;-62
2021/08/17 01:36:07;;;;;;;;;;;13.90;93.50;;;;;;5054527;28;19923;-63
2021/08/17 01:38:32;;;;;;;;;;;14.00;93.50;;;;;;5054505;28;19920;-62
2021/08/17 01:40:58;;;;;;;;;;;14.00;93.40;;;;;;5054220;28;19917;-64
2021/08/17 01:43:23;;;;;;;;;;;14.10;93.40;;;;;;5054670;28;20047;-62
2021/08/17 01:45:59;;;;;;;;;;;14.10;93.40;;;;;;5054552;28;19952;-62
2021/08/17 01:48:26;;;;;;;;;;;14.10;93.40;;;;;;5035959;28;19917;-62
2021/08/17 01:50:52;;;;;;;;;;;14.10;93.30;;;;;;5054673;28;19924;-62
2021/08/17 01:53:18;;;;;;;;;;;14.10;93.30;;;;;;5054217;28;19916;-62
2021/08/17 01:55:43;;;;;;;;;;;14.10;93.40;;;;;;5054365;28;19920;-61
2021/08/17 01:58:09;;;;;;;;;;;14.10;93.30;;;;;;5054054;28;19920;-62
2021/08/17 02:00:34;;;;;;;;;;;14.10;93.30;;;;;;5053969;28;19916;-62
2021/08/17 02:03:00;;;;;;;;;;;14.10;93.30;;;;;;5054161;28;19917;-63
2021/08/17 02:05:25;;;;;;;;;;;14.10;93.20;;;;;;5036445;28;19939;-62
2021/08/17 02:07:53;;;;;;;;;;;14.00;93.20;;;;;;5053365;28;20092;-63
2021/08/17 02:10:19;;;;;;;;;;;14.00;93.40;;;;;;5054157;28;19944;-62
2021/08/17 02:12:44;;;;;;;;;;;14.10;93.40;;;;;;5019280;28;19955;-62
2021/08/17 02:15:10;;;;;;;;;;;14.10;93.40;;;;;;5052999;28;19924;-62
2021/08/17 02:17:36;;;;;;;;;;;14.10;93.20;;;;;;5053731;28;19967;-62
2021/08/17 02:20:01;;;;;;;;;;;14.10;93.20;;;;;;5053648;28;19956;-63
2021/08/17 02:22:27;;;;;;;;;;;14.00;93.10;;;;;;5053827;28;19917;-62
2021/08/17 02:24:53;;;;;;;;;;;14.00;93.10;;;;;;5053892;28;19925;-62
2021/08/17 02:27:18;;;;;;;;;;;13.90;93.20;;;;;;5034989;28;19921;-62
2021/08/17 02:29:44;;;;;;;;;;;13.90;93.30;;;;;;5053948;28;20396;-62
2021/08/17 02:32:09;;;;;;;;;;;13.90;93.40;;;;;;5035843;28;20007;-63
2021/08/17 02:34:35;;;;;;;;;;;13.90;93.40;;;;;;5053306;28;19917;-62
2021/08/17 02:37:00;;;;;;;;;;;13.90;93.40;;;;;;5035413;28;19917;-62
2021/08/17 02:39:26;;;;;;;;;;;13.90;93.40;;;;;;5053632;28;20131;-62
2021/08/17 02:41:51;;;;;;;;;;;14.00;93.40;;;;;;5053299;28;19931;-62
2021/08/17 02:44:17;;;;;;;;;;;14.00;93.20;;;;;;5053601;28;19917;-62
2021/08/17 02:46:42;;;;;;;;;;;13.90;93.30;;;;;;5052775;28;20431;-61
2021/08/17 02:49:09;;;;;;;;;;;14.00;93.30;;;;;;5035649;28;19920;-63
2021/08/17 02:51:35;;;;;;;;;;;13.90;93.20;;;;;;5053394;28;19916;-63
2021/08/17 02:54:00;;;;;;;;;;;13.90;93.00;;;;;;5053095;28;20496;-62
2021/08/17 02:56:26;;;;;;;;;;;13.80;93.00;;;;;;5053393;28;19920;-63
2021/08/17 02:58:51;;;;;;;;;;;13.80;93.20;;;;;;5052724;28;19920;-63
2021/08/17 03:01:17;;;;;;;;;;;13.70;93.20;;;;;;5052794;28;19919;-63
2021/08/17 03:03:42;;;;;;;;;;;13.70;93.30;;;;;;5053141;28;19920;-62
2021/08/17 03:06:08;;;;;;;;;;;13.80;93.50;;;;;;5052634;28;19941;-63
2021/08/17 03:08:33;;;;;;;;;;;13.80;93.60;;;;;;5052751;28;19979;-62
2021/08/17 03:11:00;;;;;;;;;;;13.90;93.50;;;;;;5035247;28;19912;-62
2021/08/17 03:13:25;;;;;;;;;;;13.90;93.40;;;;;;5034792;28;20396;-61
2021/08/17 03:15:51;;;;;;;;;;;14.00;93.40;;;;;;5035325;28;19913;-62
2021/08/17 03:18:17;;;;;;;;;;;14.00;93.20;;;;;;5052417;28;19928;-62
2021/08/17 03:20:42;;;;;;;;;;;13.90;93.20;;;;;;5052352;28;19917;-63
2021/08/17 03:23:08;;;;;;;;;;;13.80;92.90;;;;;;5052832;28;19952;-63
2021/08/17 03:25:34;;;;;;;;;;;13.80;93.00;;;;;;5051986;28;20293;-63
2021/08/17 03:27:59;;;;;;;;;;;13.70;93.00;;;;;;5052247;28;19928;-62
2021/08/17 03:30:25;;;;;;;;;;;13.70;93.00;;;;;;5052789;28;20016;-62
2021/08/17 03:32:51;;;;;;;;;;;13.60;92.90;;;;;;5052371;28;20363;-63
2021/08/17 03:35:16;;;;;;;;;;;13.60;92.90;;;;;;5034799;28;20438;-62
2021/08/17 03:37:42;;;;;;;;;;;13.50;92.90;;;;;;5051815;28;19921;-64
2021/08/17 03:40:09;;;;;;;;;;;13.50;93.00;;;;;;5052456;28;19917;-63
2021/08/17 03:42:37;;;;;;;;;;;13.40;93.00;;;;;;5052567;28;19924;-63
2021/08/17 03:45:03;;;;;;;;;;;13.40;93.00;;;;;;5051909;28;19921;-62
2021/08/17 03:47:28;;;;;;;;;;;13.40;93.00;;;;;;5051947;28;19916;-63
2021/08/17 03:49:54;;;;;;;;;;;13.40;93.10;;;;;;5052179;28;19917;-63
2021/08/17 03:52:19;;;;;;;;;;;13.40;93.20;;;;;;5051826;28;20336;-62
2021/08/17 03:54:45;;;;;;;;;;;13.50;93.20;;;;;;5052353;28;20372;-62
2021/08/17 03:57:11;;;;;;;;;;;13.50;93.10;;;;;;5051916;28;19966;-63
2021/08/17 03:59:36;;;;;;;;;;;13.50;93.00;;;;;;5051793;28;20329;-62
2021/08/17 04:02:02;;;;;;;;;;;13.50;93.00;;;;;;5052252;28;19927;-63
2021/08/17 04:04:27;;;;;;;;;;;13.50;93.10;;;;;;5033736;28;19917;-63
2021/08/17 04:06:53;;;;;;;;;;;13.50;93.20;;;;;;5051713;28;19917;-62
2021/08/17 04:09:18;;;;;;;;;;;13.60;93.20;;;;;;5051977;28;20369;-62
2021/08/17 04:11:44;;;;;;;;;;;13.70;93.10;;;;;;5051697;28;19917;-63
2021/08/17 04:14:09;;;;;;;;;;;13.70;93.10;;;;;;5051778;28;19924;-63
2021/08/17 04:16:35;;;;;;;;;;;13.80;93.10;;;;;;5046814;28;20022;-62
2021/08/17 04:19:00;;;;;;;;;;;13.90;93.10;;;;;;5048398;28;20008;-62
2021/08/17 04:21:26;;;;;;;;;;;13.80;93.10;;;;;;5050014;28;19923;-61
2021/08/17 04:23:52;;;;;;;;;;;13.90;93.00;;;;;;5033738;28;19920;-62
2021/08/17 04:26:17;;;;;;;;;;;13.90;92.90;;;;;;5033372;28;20381;-62
2021/08/17 04:28:43;;;;;;;;;;;14.00;93.00;;;;;;5048870;28;20407;-62
2021/08/17 04:31:09;;;;;;;;;;;13.90;92.90;;;;;;5050181;28;20381;-63
2021/08/17 04:33:34;;;;;;;;;;;14.00;92.90;;;;;;5050691;28;19920;-62
2021/08/17 04:36:00;;;;;;;;;;;14.00;92.90;;;;;;5051367;28;19917;-61
2021/08/17 04:38:25;;;;;;;;;;;14.00;93.00;;;;;;5049002;28;19925;-62
2021/08/17 04:40:51;;;;;;;;;;;14.00;93.00;;;;;;5051464;28;20285;-62
2021/08/17 04:43:16;;;;;;;;;;;14.00;93.20;;;;;;5051566;28;20003;-62
2021/08/17 04:45:42;;;;;;;;;;;14.10;93.30;;;;;;5049903;28;19956;-62
2021/08/17 04:48:08;;;;;;;;;;;14.20;93.40;;;;;;5051066;28;20407;-63
2021/08/17 04:50:33;;;;;;;;;;;14.20;93.10;;;;;;5036683;28;19917;-63
2021/08/17 04:52:59;;;;;;;;;;;14.20;93.00;;;;;;5031015;28;19926;-64
2021/08/17 04:55:24;;;;;;;;;;;14.20;93.00;;;;;;5031289;28;19917;-62
2021/08/17 04:57:53;;;;;;;;;;;14.30;93.30;;;;;;5030106;28;19960;-64
2021/08/17 05:00:18;;;;;;;;;;;14.40;93.50;;;;;;5023392;28;19918;-62
2021/08/17 05:02:44;;;;;;;;;;;14.60;93.80;;;;;;5013662;28;19924;-62
2021/08/17 05:05:10;;;;;;;;;;;14.90;93.70;;;;;;5011192;28;19918;-63
2021/08/17 05:07:36;;;;;;;;;;;15.00;93.50;;;;;;5011516;28;19997;-64
2021/08/17 05:10:02;;;;;;;;;;;15.10;93.10;;;;;;5011791;28;19918;-62
2021/08/17 05:12:27;;;;;;;;;;;15.00;92.80;;;;;;5011413;28;19925;-63
2021/08/17 05:14:53;;;;;;;;;;;14.90;92.80;;;;;;5011926;28;20382;-63
2021/08/17 05:17:18;;;;;;;;;;;14.80;93.00;;;;;;5010919;28;19918;-64
2021/08/17 05:19:44;;;;;;;;;;;14.80;93.10;;;;;;5011682;28;19921;-63
2021/08/17 05:22:09;;;;;;;;;;;14.90;93.30;;;;;;5011097;28;19944;-61
2021/08/17 05:24:35;;;;;;;;;;;15.10;93.60;;;;;;5011227;28;19918;-62
2021/08/17 05:27:00;;;;;;;;;;;15.30;93.90;;;;;;5011119;28;19925;-63
2021/08/17 05:29:26;;;;;;;;;;;15.50;93.70;;;;;;5011536;28;19924;-63
2021/08/17 05:31:51;;;;;;;;;;;15.60;93.60;;;;;;5011075;28;19918;-62
2021/08/17 05:34:17;;;;;;;;;;;15.70;93.10;;;;;;5011446;28;20439;-63
2021/08/17 05:36:42;;;;;;;;;;;15.70;92.80;;;;;;5009731;28;19925;-63
2021/08/17 05:39:08;;;;;;;;;;;15.60;92.80;;;;;;5009336;28;19949;-63
2021/08/17 05:41:33;;;;;;;;;;;15.60;92.70;;;;;;5010771;28;19918;-63
2021/08/17 05:43:59;;;;;;;;;;;15.40;92.80;;;;;;5009787;28;19925;-63
2021/08/17 05:46:24;;;;;;;;;;;15.40;92.90;;;;;;5009391;28;19975;-62
2021/08/17 05:48:50;;;;;;;;;;;15.30;92.90;;;;;;5012574;28;19925;-63
2021/08/17 05:51:15;;;;;;;;;;;15.20;93.10;;;;;;5014278;28;19960;-62
2021/08/17 05:53:41;;;;;;;;;;;15.20;93.10;;;;;;5014761;28;19939;-63
2021/08/17 05:56:06;;;;;;;;;;;15.20;93.00;;;;;;5014834;28;20012;-62
2021/08/17 05:58:32;;;;;;;;;;;15.10;93.00;;;;;;5014046;28;20306;-62
2021/08/17 06:00:57;;;;;;;;;;;15.10;93.20;;;;;;5014414;28;19921;-62
2021/08/17 06:03:23;;;;;;;;;;;15.10;93.40;;;;;;5014336;28;19922;-62
2021/08/17 06:05:48;;;;;;;;;;;15.60;94.80;;;;;;5014323;28;19918;-62
2021/08/17 06:08:14;;;;;;;;;;;16.20;95.30;;;;;;5014272;28;19918;-62
2021/08/17 06:10:39;;;;;;;;;;;16.90;95.40;;;;;;5014071;28;19924;-63
2021/08/17 06:13:05;;;;;;;;;;;17.30;94.20;;;;;;5014804;28;19918;-63
2021/08/17 06:15:31;;;;;;;;;;;17.70;94.20;;;;;;5014197;28;19940;-62
2021/08/17 06:18:02;;;;;;;;;;;18.30;94.30;;;;;;5013135;28;20382;-62
2021/08/17 06:20:27;;;;;;;;;;;18.50;92.50;;;;;;5012839;28;20009;-62
2021/08/17 06:22:53;;;;;;;;;;;18.20;91.70;;;;;;4996694;28;20398;-62
2021/08/17 06:25:19;;;;;;;;;;;18.30;92.40;;;;;;5011630;28;19918;-62
2021/08/17 06:27:44;;;;;;;;;;;18.30;91.90;;;;;;5013473;28;20327;-62
2021/08/17 06:30:10;;;;;;;;;;;18.50;91.90;;;;;;5013563;28;19924;-63
2021/08/17 06:32:35;;;;;;;;;;;19.20;93.10;;;;;;5013925;28;19921;-62
2021/08/17 06:35:01;;;;;;;;;;;19.90;92.30;;;;;;5014087;28;19917;-62
2021/08/17 06:37:27;;;;;;;;;;;20.40;91.50;;;;;;5013067;28;19968;-62
2021/08/17 06:39:52;;;;;;;;;;;20.20;87.60;;;;;;5013713;28;19975;-62
2021/08/17 06:42:18;;;;;;;;;;;20.40;90.90;;;;;;5013654;28;20321;-61
2021/08/17 06:44:43;;;;;;;;;;;20.90;89.30;;;;;;5013513;28;20378;-62
2021/08/17 06:47:09;;;;;;;;;;;20.90;85.80;;;;;;5013259;28;19921;-62
2021/08/17 06:49:34;;;;;;;;;;;20.50;83.60;;;;;;5013219;28;19918;-61
2021/08/17 06:52:00;;;;;;;;;;;20.20;85.60;;;;;;5013650;28;19921;-61
2021/08/17 06:54:26;;;;;;;;;;;20.10;83.70;;;;;;5013511;28;19922;-62
2021/08/17 06:56:51;;;;;;;;;;;20.60;88.90;;;;;;5012781;28;19918;-62
2021/08/17 06:59:17;;;;;;;;;;;21.50;89.20;;;;;;5012715;28;19929;-62
2021/08/17 07:01:42;;;;;;;;;;;22.80;89.20;;;;;;5011539;28;19922;-62
2021/08/17 07:04:08;;;;;;;;;;;23.00;81.80;;;;;;5013024;28;19932;-61
2021/08/17 07:06:35;;;;;;;;;;;22.30;78.60;;;;;;5012775;28;19921;-62
2021/08/17 07:09:02;;;;;;;;;;;22.00;79.00;;;;;;5010946;28;20289;-62
2021/08/17 07:11:28;;;;;;;;;;;22.40;80.70;;;;;;5010890;28;19929;-61
2021/08/17 07:13:54;;;;;;;;;;;22.20;76.40;;;;;;5010801;28;19917;-62
2021/08/17 07:16:19;;;;;;;;;;;22.30;78.60;;;;;;5011943;28;19924;-63
2021/08/17 07:18:45;;;;;;;;;;;22.10;75.50;;;;;;5010562;28;19921;-61
2021/08/17 07:21:10;;;;;;;;;;;22.10;77.60;;;;;;5012409;28;19940;-61
2021/08/17 07:23:36;;;;;;;;;;;22.80;79.50;;;;;;5011943;28;19921;-63
2021/08/17 07:26:01;;;;;;;;;;;23.10;77.50;;;;;;5013040;28;19921;-63
2021/08/17 07:28:27;;;;;;;;;;;23.40;76.80;;;;;;5012430;28;19921;-62
2021/08/17 07:30:53;;;;;;;;;;;24.00;76.00;;;;;;5013466;28;20362;-62
2021/08/17 07:33:19;;;;;;;;;;;23.70;70.30;;;;;;5012914;28;20286;-62
2021/08/17 07:35:44;;;;;;;;;;;22.60;69.70;;;;;;5012978;28;19917;-62
2021/08/17 07:38:10;;;;;;;;;;;21.60;69.40;;;;;;5012012;28;20338;-61
2021/08/17 07:40:36;;;;;;;;;;;20.60;70.40;;;;;;5012790;28;19967;-61
2021/08/17 07:43:01;;;;;;;;;;;19.80;72.20;;;;;;5012414;28;19917;-62
2021/08/17 07:45:27;;;;;;;;;;;19.20;73.90;;;;;;5012733;28;20353;-62
2021/08/17 07:47:52;;;;;;;;;;;18.90;74.80;;;;;;5012799;28;19953;-62
2021/08/17 07:50:18;;;;;;;;;;;18.60;76.60;;;;;;5013311;28;19917;-63
2021/08/17 07:52:44;;;;;;;;;;;18.50;77.30;;;;;;5012863;28;19941;-61
2021/08/17 07:55:10;;;;;;;;;;;18.90;81.80;;;;;;5012409;28;19917;-62
2021/08/17 07:57:36;;;;;;;;;;;19.70;80.40;;;;;;5011905;28;19925;-63
2021/08/17 08:00:02;;;;;;;;;;;19.80;77.90;;;;;;5012190;28;19922;-63
2021/08/17 08:02:29;;;;;;;;;;;19.60;76.40;;;;;;5012139;28;20358;-63
2021/08/17 08:04:55;;;;;;;;;;;19.20;75.90;;;;;;5011015;28;19924;-63
2021/08/17 08:07:21;;;;;;;;;;;19.00;78.80;;;;;;5011855;28;19917;-63
2021/08/17 08:09:46;;;;;;;;;;;18.90;78.80;;;;;;5012022;28;19918;-63
2021/08/17 08:12:13;;;;;;;;;;;18.90;78.00;;;;;;5011386;28;19944;-63
2021/08/17 08:14:39;;;;;;;;;;;18.80;78.90;;;;;;5012037;28;19918;-63
2021/08/17 08:17:05;;;;;;;;;;;18.90;79.70;;;;;;5011053;28;19918;-63
2021/08/17 08:19:31;;;;;;;;;;;18.90;78.30;;;;;;5012251;28;20010;-63
2021/08/17 08:21:56;;;;;;;;;;;18.80;78.70;;;;;;5011821;28;19917;-64
2021/08/17 08:24:22;;;;;;;;;;;18.70;79.00;;;;;;5012138;28;20301;-63
2021/08/17 08:26:47;;;;;;;;;;;18.50;78.40;;;;;;5011968;28;19917;-63
2021/08/17 08:29:13;;;;;;;;;;;18.20;78.90;;;;;;5011814;28;19932;-64
2021/08/17 08:31:38;;;;;;;;;;;18.00;80.10;;;;;;5012235;28;19968;-64
2021/08/17 08:34:04;;;;;;;;;;;18.20;82.20;;;;;;5012111;28;19918;-64
2021/08/17 08:36:29;;;;;;;;;;;18.30;81.00;;;;;;5012273;28;19924;-64
2021/08/17 08:38:55;;;;;;;;;;;18.10;80.30;;;;;;5011912;28;19922;-64
2021/08/17 08:41:21;;;;;;;;;;;17.90;80.30;;;;;;5013154;28;19918;-63
2021/08/17 08:43:47;;;;;;;;;;;17.70;80.60;;;;;;5013982;28;19917;-62
2021/08/17 08:46:17;;;;;;;;;;;17.50;80.90;;;;;;5012847;28;20408;-62
2021/08/17 08:48:45;;;;;;;;;;;17.30;81.40;;;;;;5011875;28;20399;-64
2021/08/17 08:51:11;;;;;;;;;;;17.30;83.40;;;;;;5013446;28;19975;-64
2021/08/17 08:53:37;;;;;;;;;;;17.80;85.70;;;;;;5015024;28;20441;-63
2021/08/17 08:56:03;;;;;;;;;;;18.00;82.70;;;;;;5013176;28;19953;-62
2021/08/17 08:58:29;;;;;;;;;;;17.80;81.50;;;;;;5013186;28;19964;-64
2021/08/17 09:00:56;;;;;;;;;;;17.50;81.60;;;;;;5012577;28;20396;-64
2021/08/17 09:03:41;;;;;;;;;;;17.30;81.90;;;;;;5012464;28;19917;-62
2021/08/17 09:06:14;;;;;;;;;;;17.00;82.70;;;;;;5011881;28;20004;-64
2021/08/17 09:08:40;;;;;;;;;;;16.90;83.70;;;;;;5011521;28;19940;-64
2021/08/17 09:11:20;;;;;;;;;;;16.70;83.90;;;;;;5012066;28;20279;-63
2021/08/17 09:13:46;;;;;;;;;;;16.80;85.20;;;;;;5031134;28;19917;-63
2021/08/17 09:16:24;;;;;;;;;;;16.80;85.30;;;;;;5031358;28;20016;-62
2021/08/17 09:18:52;;;;;;;;;;;16.80;85.20;;;;;;5030677;28;19928;-63
2021/08/17 09:21:31;;;;;;;;;;;16.90;85.50;;;;;;5031339;28;19918;-64
2021/08/17 09:23:56;;;;;;;;;;;16.90;85.00;;;;;;5033330;28;19917;-64
2021/08/17 09:26:24;;;;;;;;;;;16.70;84.80;;;;;;5035229;28;19939;-62
2021/08/17 09:28:57;;;;;;;;;;;16.60;85.20;;;;;;5034562;28;19921;-64
2021/08/17 09:31:31;;;;;;;;;;;16.60;86.20;;;;;;5034822;28;19917;-64
2021/08/17 09:33:57;;;;;;;;;;;16.70;86.30;;;;;;5035073;28;19917;-63
2021/08/17 09:36:22;;;;;;;;;;;16.70;86.20;;;;;;5034614;28;19999;-64
2021/08/17 09:38:48;;;;;;;;;;;16.60;86.20;;;;;;5034403;28;20400;-63
2021/08/17 09:41:18;;;;;;;;;;;16.50;86.00;;;;;;5016674;28;19917;-64
2021/08/17 09:43:54;;;;;;;;;;;16.40;86.10;;;;;;5034547;28;19917;-62
2021/08/17 09:46:25;;;;;;;;;;;16.20;86.70;;;;;;5034212;28;19917;-63
2021/08/17 09:48:51;;;;;;;;;;;16.00;87.00;;;;;;5034569;28;19925;-64
2021/08/17 09:51:35;;;;;;;;;;;15.90;87.50;;;;;;5034755;28;19917;-64
2021/08/17 09:54:10;;;;;;;;;;;15.80;88.20;;;;;;5034293;28;19921;-64
2021/08/17 09:56:36;;;;;;;;;;;15.80;88.60;;;;;;5034382;28;19917;-64
2021/08/17 09:59:02;;;;;;;;;;;15.80;89.60;;;;;;5034177;28;20086;-64
2021/08/17 10:01:28;;;;;;;;;;;16.00;90.10;;;;;;5034588;28;19917;-64
2021/08/17 10:03:53;;;;;;;;;;;16.30;90.50;;;;;;5034127;28;19917;-65
2021/08/17 10:06:19;;;;;;;;;;;16.60;90.40;;;;;;5034603;28;20389;-64
2021/08/17 10:08:45;;;;;;;;;;;16.90;90.50;;;;;;5016154;28;19917;-63
2021/08/17 10:11:10;;;;;;;;;;;17.20;90.10;;;;;;5033692;28;19993;-64
2021/08/17 10:13:37;;;;;;;;;;;17.30;89.20;;;;;;5034109;28;19917;-64
2021/08/17 10:16:03;;;;;;;;;;;17.30;88.60;;;;;;5033930;28;19967;-63
2021/08/17 10:18:30;;;;;;;;;;;17.20;88.10;;;;;;4999671;28;19925;-63
2021/08/17 10:20:58;;;;;;;;;;;17.10;88.30;;;;;;5034229;28;20379;-63
2021/08/17 10:23:24;;;;;;;;;;;17.10;88.80;;;;;;5033701;28;19950;-63
2021/08/17 10:25:56;;;;;;;;;;;17.10;88.30;;;;;;5016206;28;20003;-63
2021/08/17 10:28:22;;;;;;;;;;;16.90;87.90;;;;;;5043757;28;20400;-64
2021/08/17 10:30:48;;;;;;;;;;;16.80;88.10;;;;;;5063560;28;19916;-63
2021/08/17 10:33:34;;;;;;;;;;;16.70;88.20;;;;;;5064065;28;19924;-64
2021/08/17 10:35:59;;;;;;;;;;;16.60;88.60;;;;;;5062089;28;19931;-64
2021/08/17 10:38:25;;;;;;;;;;;16.50;88.40;;;;;;5062143;28;19921;-64
2021/08/17 10:40:51;;;;;;;;;;;16.30;88.50;;;;;;5063916;28;19917;-63
2021/08/17 10:43:16;;;;;;;;;;;16.20;89.10;;;;;;5065663;28;19994;-64
2021/08/17 10:46:03;;;;;;;;;;;16.00;89.80;;;;;;5064151;28;19931;-64
2021/08/17 10:48:50;;;;;;;;;;;16.00;90.00;;;;;;5060250;28;20369;-64
2021/08/17 10:51:18;;;;;;;;;;;16.00;90.20;;;;;;5061505;28;19920;-64
2021/08/17 10:54:04;;;;;;;;;;;15.90;90.20;;;;;;5059122;28;19994;-64
2021/08/17 10:56:32;;;;;;;;;;;15.90;90.50;;;;;;5060068;28;20300;-62
2021/08/17 10:58:58;;;;;;;;;;;15.90;90.50;;;;;;5061960;28;19932;-62
2021/08/17 11:01:30;;;;;;;;;;;15.90;90.60;;;;;;5059336;28;19940;-63
2021/08/17 11:04:00;;;;;;;;;;;15.80;90.80;;;;;;5061803;28;19924;-64
2021/08/17 11:06:39;;;;;;;;;;;15.80;90.90;;;;;;5059652;28;19917;-64
2021/08/17 11:09:14;;;;;;;;;;;15.90;91.20;;;;;;5054183;28;19917;-64
2021/08/17 11:11:41;;;;;;;;;;;16.00;91.10;;;;;;5041682;28;19925;-62
2021/08/17 11:14:08;;;;;;;;;;;16.00;91.00;;;;;;5059612;28;20323;-64
2021/08/17 11:16:38;;;;;;;;;;;16.00;91.00;;;;;;5043169;28;19917;-64
2021/08/17 11:19:04;;;;;;;;;;;16.00;91.00;;;;;;5023247;28;20396;-63
2021/08/17 11:21:33;;;;;;;;;;;16.00;91.10;;;;;;5025461;28;19920;-64
2021/08/17 11:24:14;;;;;;;;;;;15.90;90.90;;;;;;5042589;28;19917;-63
2021/08/17 11:26:41;;;;;;;;;;;15.90;91.10;;;;;;5060147;28;19924;-64
2021/08/17 11:29:06;;;;;;;;;;;15.90;91.30;;;;;;5061280;28;20278;-63
2021/08/17 11:31:42;;;;;;;;;;;15.90;91.40;;;;;;5062816;28;19943;-64
2021/08/17 11:34:11;;;;;;;;;;;16.00;91.40;;;;;;5063225;28;19940;-64
2021/08/17 11:36:37;;;;;;;;;;;16.00;91.30;;;;;;5061195;28;20376;-64
2021/08/17 11:39:15;;;;;;;;;;;16.00;91.40;;;;;;5061408;28;20019;-64
2021/08/17 11:41:41;;;;;;;;;;;16.00;91.40;;;;;;5060961;28;19916;-64
2021/08/17 11:44:11;;;;;;;;;;;16.00;91.10;;;;;;5059872;28;19932;-64
2021/08/17 11:46:36;;;;;;;;;;;16.00;91.30;;;;;;5062014;28;20304;-63
2021/08/17 11:49:17;;;;;;;;;;;16.10;91.60;;;;;;5056376;28;19950;-62
2021/08/17 11:51:43;;;;;;;;;;;16.20;91.80;;;;;;5053149;28;20011;-63
2021/08/17 11:54:12;;;;;;;;;;;16.40;91.70;;;;;;5067282;28;19998;-63
2021/08/17 11:56:38;;;;;;;;;;;16.50;91.40;;;;;;5058702;28;19951;-68
2021/08/17 11:59:03;;;;;;;;;;;16.40;90.90;;;;;;5025717;28;19924;-63
2021/08/17 12:01:29;;;;;;;;;;;16.40;90.90;;;;;;5064198;28;19920;-62
2021/08/17 12:04:07;;;;;;;;;;;16.30;91.00;;;;;;5058470;28;19921;-67
2021/08/17 12:06:33;;;;;;;;;;;16.30;91.00;;;;;;5070056;28;20463;-64
2021/08/17 12:09:18;;;;;;;;;;;16.30;91.20;;;;;;5065683;28;20003;-64
2021/08/17 12:11:59;;;;;;;;;;;16.30;90.70;;;;;;5052444;28;20369;-65
2021/08/17 12:14:25;;;;;;;;;;;16.10;90.70;;;;;;5048674;28;19952;-64
2021/08/17 12:16:54;;;;;;;;;;;16.00;90.90;;;;;;5031872;28;19988;-64
2021/08/17 12:19:19;;;;;;;;;;;15.80;91.00;;;;;;5015082;28;19928;-64
2021/08/17 12:21:46;;;;;;;;;;;15.80;91.20;;;;;;5032458;28;19917;-62
2021/08/17 12:24:27;;;;;;;;;;;15.80;91.50;;;;;;5033000;28;19917;-64
2021/08/17 12:26:53;;;;;;;;;;;15.80;91.20;;;;;;5027722;28;19924;-64
2021/08/17 12:29:23;;;;;;;;;;;15.80;91.60;;;;;;5015271;28;19921;-64
2021/08/17 12:31:49;;;;;;;;;;;15.90;91.30;;;;;;5031383;28;20324;-64
2021/08/17 12:34:14;;;;;;;;;;;15.80;91.30;;;;;;5028360;28;19913;-64
2021/08/17 12:36:40;;;;;;;;;;;15.80;91.60;;;;;;5030849;28;19917;-64
2021/08/17 12:39:26;;;;;;;;;;;15.80;91.70;;;;;;5030327;28;19928;-64
2021/08/17 12:41:53;;;;;;;;;;;15.90;91.90;;;;;;5028388;28;19917;-63
2021/08/17 12:44:22;;;;;;;;;;;16.00;91.80;;;;;;5013141;28;19967;-63
2021/08/17 12:47:00;;;;;;;;;;;16.20;91.90;;;;;;5030457;28;20370;-62
2021/08/17 12:49:58;;;;;;;;;;;16.20;91.80;;;;;;5012771;28;19941;-62
2021/08/17 12:52:31;;;;;;;;;;;16.30;91.60;;;;;;4985888;28;19917;-63
2021/08/17 12:55:15;;;;;;;;;;;16.30;91.50;;;;;;5031050;28;19921;-62
2021/08/17 12:57:42;;;;;;;;;;;16.40;91.70;;;;;;5029215;28;19926;-61
2021/08/17 13:00:11;;;;;;;;;;;16.50;91.70;;;;;;5034344;28;19925;-61
2021/08/17 13:02:37;;;;;;;;;;;16.60;91.80;;;;;;5030459;28;19917;-64
2021/08/17 13:05:04;;;;;;;;;;;16.80;91.70;;;;;;5036559;28;19972;-62
2021/08/17 13:07:29;;;;;;;;;;;16.90;91.60;;;;;;5050208;28;20340;-62
2021/08/17 13:10:01;;;;;;;;;;;17.00;91.40;;;;;;5034740;28;19918;-63
2021/08/17 13:12:27;;;;;;;;;;;17.00;91.30;;;;;;5032416;28;19924;-62
2021/08/17 13:14:53;;;;;;;;;;;17.00;91.10;;;;;;5040525;28;19928;-62
2021/08/17 13:17:19;;;;;;;;;;;17.10;91.10;;;;;;5060563;28;20439;-64
2021/08/17 13:19:44;;;;;;;;;;;17.00;90.90;;;;;;5054549;28;19920;-62
2021/08/17 13:22:10;;;;;;;;;;;16.90;90.80;;;;;;5054092;28;19917;-63
2021/08/17 13:24:35;;;;;;;;;;;16.90;91.00;;;;;;5062766;28;19925;-63
2021/08/17 13:27:02;;;;;;;;;;;16.80;91.10;;;;;;5053873;28;20431;-63
2021/08/17 13:29:27;;;;;;;;;;;16.80;91.00;;;;;;5059571;28;19916;-63
2021/08/17 13:31:54;;;;;;;;;;;16.80;90.90;;;;;;5064941;28;20385;-64
2021/08/17 13:34:19;;;;;;;;;;;16.70;90.80;;;;;;5054400;28;19916;-63
2021/08/17 13:36:45;;;;;;;;;;;16.70;90.90;;;;;;5055916;28;19970;-64
2021/08/17 13:39:11;;;;;;;;;;;16.60;90.60;;;;;;5063258;28;20312;-63
2021/08/17 13:41:37;;;;;;;;;;;16.60;90.80;;;;;;5063746;28;19916;-64
2021/08/17 13:44:02;;;;;;;;;;;16.50;90.80;;;;;;5041962;28;19924;-64
2021/08/17 13:46:28;;;;;;;;;;;16.50;91.20;;;;;;5058451;28;20369;-64
2021/08/17 13:48:54;;;;;;;;;;;16.50;90.90;;;;;;5043606;28;19923;-63
2021/08/17 13:51:19;;;;;;;;;;;16.50;91.10;;;;;;5027133;28;20003;-64
2021/08/17 13:53:47;;;;;;;;;;;16.60;91.20;;;;;;5043132;28;20087;-64
2021/08/17 13:56:13;;;;;;;;;;;16.50;90.90;;;;;;5043728;28;19947;-64
2021/08/17 13:58:38;;;;;;;;;;;16.50;91.00;;;;;;5044489;28;20389;-64
2021/08/17 14:01:04;;;;;;;;;;;16.50;90.90;;;;;;5044128;28;19917;-64
2021/08/17 14:03:30;;;;;;;;;;;16.40;90.90;;;;;;5042664;28;19917;-64
2021/08/17 14:05:55;;;;;;;;;;;16.30;90.80;;;;;;5044029;28;20007;-64
2021/08/17 14:08:21;;;;;;;;;;;16.20;90.90;;;;;;5044245;28;19924;-64
2021/08/17 14:10:47;;;;;;;;;;;16.20;91.00;;;;;;5042245;28;19917;-65
2021/08/17 14:13:13;;;;;;;;;;;16.20;91.20;;;;;;5044221;28;19921;-64
2021/08/17 14:15:38;;;;;;;;;;;16.30;91.20;;;;;;5042648;28;20000;-63